Time;durP1;ratioP1;P1;durP2;ratioP2;P2;SDS_P1;SDS_P2;PMS_P1;PMS_P2;Temp;Humidity;BMP_temperature;BMP_pressure;BME280_temperature;BME280_humidity;BME280_pressure;Samples;Min_cycle;Max_cycle;Signal;HPM_P1;HPM_P2
2022/04/06 00:01:35;;;;;;;12.65;11.23;;;;;;;7.28;100.00;98231.16;5091700;28;20027;-77
2022/04/06 00:04:01;;;;;;;12.20;10.90;;;;;;;7.26;100.00;98233.84;5091427;28;20024;-77
2022/04/06 00:06:26;;;;;;;11.57;10.30;;;;;;;7.28;100.00;98238.91;5091722;28;20035;-78
2022/04/06 00:08:52;;;;;;;11.27;10.07;;;;;;;7.30;100.00;98242.28;5073333;28;20463;-78
2022/04/06 00:11:17;;;;;;;11.00;9.90;;;;;;;7.29;100.00;98238.84;5094826;28;20016;-78
2022/04/06 00:13:42;;;;;;;10.52;9.52;;;;;;;7.34;100.00;98238.59;5095638;28;20028;-79
2022/04/06 00:16:08;;;;;;;10.60;9.40;;;;;;;7.34;100.00;98239.44;5095347;28;20387;-78
2022/04/06 00:18:33;;;;;;;10.80;9.70;;;;;;;7.35;100.00;98243.69;5077073;28;20020;-78
2022/04/06 00:20:59;;;;;;;11.27;10.10;;;;;;;7.35;100.00;98240.25;5077092;28;20020;-77
2022/04/06 00:23:25;;;;;;;11.23;10.13;;;;;;;7.39;100.00;98245.19;5077192;28;20043;-77
2022/04/06 00:25:50;;;;;;;11.50;10.40;;;;;;;7.31;100.00;98237.00;5076893;28;20024;-77
2022/04/06 00:28:16;;;;;;;11.25;10.13;;;;;;;7.44;100.00;98245.75;5095359;28;20047;-77
2022/04/06 00:30:41;;;;;;;11.38;10.23;;;;;;;7.35;100.00;98229.91;5095007;28;20352;-78
2022/04/06 00:33:07;;;;;;;11.38;10.25;;;;;;;7.40;100.00;98236.47;5095188;28;20076;-78
2022/04/06 00:35:32;;;;;;;11.57;10.45;;;;;;;7.43;100.00;98245.84;5094987;28;20099;-77
2022/04/06 00:38:03;;;;;;;12.10;10.90;;;;;;;7.41;100.00;98245.09;5094878;28;20023;-78
2022/04/06 00:40:29;;;;;;;11.27;10.25;;;;;;;7.48;100.00;98244.66;5095070;28;20039;-77
2022/04/06 00:42:55;;;;;;;12.20;10.93;;;;;;;7.53;100.00;98256.50;5094834;28;20210;-77
2022/04/06 00:45:25;;;;;;;13.05;11.75;;;;;;;7.47;100.00;98245.59;5094914;28;20103;-78
2022/04/06 00:47:51;;;;;;;13.75;12.45;;;;;;;7.56;100.00;98248.56;5094325;28;20024;-78
2022/04/06 00:50:18;;;;;;;14.35;12.95;;;;;;;7.55;100.00;98252.94;5094928;28;20111;-78
2022/04/06 00:52:44;;;;;;;14.70;13.20;;;;;;;7.57;100.00;98268.38;5094655;28;20035;-78
2022/04/06 00:55:12;;;;;;;14.05;12.65;;;;;;;7.52;100.00;98239.31;5094655;28;20411;-78
2022/04/06 00:57:38;;;;;;;14.65;13.13;;;;;;;7.56;100.00;98241.63;5094738;28;20028;-78
2022/04/06 01:00:06;;;;;;;15.25;13.75;;;;;;;7.57;100.00;98248.47;5094543;28;20482;-78
2022/04/06 01:02:31;;;;;;;14.52;13.10;;;;;;;7.64;100.00;98267.94;5094461;28;20035;-77
2022/04/06 01:04:57;;;;;;;14.82;13.32;;;;;;;7.61;100.00;98247.38;5094401;28;20414;-77
2022/04/06 01:07:23;;;;;;;15.85;14.23;;;;;;;7.66;100.00;98250.53;5094565;28;20054;-77
2022/04/06 01:09:48;;;;;;;16.08;13.55;;;;;;;7.72;100.00;98257.16;5076072;28;20055;-77
2022/04/06 01:12:14;;;;;;;15.93;14.40;;;;;;;7.71;100.00;98261.50;5094392;28;20038;-78
2022/04/06 01:14:40;;;;;;;16.90;15.15;;;;;;;7.75;100.00;98257.81;5075825;28;20484;-78
2022/04/06 01:17:07;;;;;;;17.20;15.45;;;;;;;7.62;100.00;98233.50;5094445;28;20028;-78
2022/04/06 01:19:39;;;;;;;16.30;14.60;;;;;;;7.64;100.00;98236.03;5076257;28;20497;-78
2022/04/06 01:22:08;;;;;;;17.83;15.90;;;;;;;7.69;100.00;98245.19;5092801;28;20028;-78
2022/04/06 01:24:34;;;;;;;19.25;16.48;;;;;;;7.73;100.00;98251.03;5094232;28;20046;-78
2022/04/06 01:27:01;;;;;;;17.77;15.88;;;;;;;7.72;100.00;98249.38;5093905;28;20328;-78
2022/04/06 01:29:27;;;;;;;17.95;16.05;;;;;;;7.80;100.00;98260.16;5075667;28;20038;-78
2022/04/06 01:31:52;;;;;;;18.15;15.95;;;;;;;7.82;100.00;98250.50;5093883;28;20023;-78
2022/04/06 01:34:17;;;;;;;19.13;17.13;;;;;;;7.87;100.00;98261.44;5094114;28;20024;-78
2022/04/06 01:36:43;;;;;;;18.48;16.60;;;;;;;7.84;100.00;98245.25;5093660;28;20478;-78
2022/04/06 01:39:08;;;;;;;17.13;15.38;;;;;;;7.85;100.00;98252.09;5093950;28;20026;-78
2022/04/06 01:41:34;;;;;;;17.50;15.70;;;;;;;7.80;100.00;98247.19;5075576;28;20034;-78
2022/04/06 01:44:00;;;;;;;18.90;16.90;;;;;;;7.82;100.00;98254.84;5093501;28;20056;-78
2022/04/06 01:46:26;;;;;;;17.38;15.75;;;;;;;7.89;100.00;98266.56;5075901;28;20066;-78
2022/04/06 01:54:23;;;;;;;19.58;17.67;;;;;;;7.91;100.00;98268.13;5093767;28;20119;-78
2022/04/06 01:56:49;;;;;;;18.70;16.80;;;;;;;7.84;100.00;98251.28;5093218;28;20114;-78
2022/04/06 01:59:15;;;;;;;17.75;16.02;;;;;;;7.91;100.00;98268.13;5075382;28;20069;-78
2022/04/06 02:01:41;;;;;;;17.50;15.70;;;;;;;7.85;100.00;98260.72;5075342;28;20027;-78
2022/04/06 02:04:14;;;;;;;16.77;15.07;;;;;;;7.93;100.00;98273.22;5075064;28;20085;-78
2022/04/06 02:06:40;;;;;;;17.67;15.65;;;;;;;7.95;100.00;98269.59;5093240;28;20090;-78
2022/04/06 02:09:05;;;;;;;16.38;14.68;;;;;;;7.89;100.00;98262.19;5092841;28;20024;-78
2022/04/06 02:11:31;;;;;;;17.30;15.55;;;;;;;7.91;100.00;98262.09;5075171;28;20532;-78
2022/04/06 02:13:57;;;;;;;16.70;15.00;;;;;;;7.89;100.00;98251.81;5050035;28;20036;-78
2022/04/06 02:16:23;;;;;;;17.58;15.45;;;;;;;7.89;100.00;98258.78;5050399;28;20033;-78
2022/04/06 02:18:49;;;;;;;15.77;14.18;;;;;;;7.94;100.00;98264.53;5050417;28;20114;-78
2022/04/06 02:21:15;;;;;;;17.25;15.55;;;;;;;7.83;100.00;98249.56;5050396;28;20671;-78
2022/04/06 02:23:40;;;;;;;18.02;16.05;;;;;;;7.92;100.00;98267.22;5050306;28;20112;-78
2022/04/06 02:26:06;;;;;;;17.13;15.35;;;;;;;7.91;100.00;98267.28;5050080;28;20029;-78
2022/04/06 02:28:32;;;;;;;16.88;14.82;;;;;;;7.89;100.00;98267.38;5033449;28;20120;-77
2022/04/06 02:30:57;;;;;;;17.17;15.05;;;;;;;7.75;100.00;98244.84;5033169;28;20477;-78
2022/04/06 02:33:23;;;;;;;17.50;15.70;;;;;;;7.84;100.00;98264.22;5049896;28;20106;-78
2022/04/06 02:35:48;;;;;;;16.38;14.68;;;;;;;7.86;100.00;98261.53;5049918;28;20032;-78
2022/04/06 02:38:13;;;;;;;16.95;15.15;;;;;;;7.74;100.00;98247.53;5049968;28;20056;-77
2022/04/06 02:40:39;;;;;;;16.75;14.90;;;;;;;7.85;100.00;98271.06;5033364;28;20037;-77
2022/04/06 02:43:04;;;;;;;16.20;14.50;;;;;;;7.77;100.00;98264.66;5049749;28;20091;-78
2022/04/06 02:45:29;;;;;;;15.40;13.80;;;;;;;7.82;100.00;98273.00;5049955;28;20029;-78
2022/04/06 02:47:55;;;;;;;15.65;14.02;;;;;;;7.86;100.00;98266.72;5049525;28;20128;-78
2022/04/06 02:50:21;;;;;;;15.68;14.05;;;;;;;7.80;100.00;98257.56;5052933;28;20052;-78
2022/04/06 02:52:47;;;;;;;15.82;14.13;;;;;;;7.84;100.00;98260.81;5074021;28;20070;-78
2022/04/06 02:55:13;;;;;;;15.93;14.32;;;;;;;7.90;100.00;98270.81;5093006;28;20462;-78
2022/04/06 02:57:39;;;;;;;16.27;14.45;;;;;;;7.87;100.00;98271.81;5092752;28;20024;-77
2022/04/06 03:00:05;;;;;;;15.55;13.95;;;;;;;7.75;100.00;98249.19;5074200;28;20449;-78
2022/04/06 03:02:31;;;;;;;14.40;13.00;;;;;;;7.87;100.00;98270.97;5092718;28;20040;-77
2022/04/06 03:04:56;;;;;;;15.00;12.95;;;;;;;7.82;100.00;98257.44;5073733;28;20026;-78
2022/04/06 03:07:22;;;;;;;14.45;12.95;;;;;;;7.88;100.00;98268.31;5092177;28;20048;-78
2022/04/06 03:09:47;;;;;;;14.32;12.82;;;;;;;7.89;100.00;98263.97;5073969;28;20348;-78
2022/04/06 03:12:13;;;;;;;13.95;12.55;;;;;;;7.77;100.00;98247.34;5092636;28;20075;-77
2022/04/06 03:14:38;;;;;;;12.70;11.40;;;;;;;7.90;100.00;98269.03;5092319;28;20101;-77
2022/04/06 03:17:04;;;;;;;13.60;12.20;;;;;;;7.92;100.00;98271.53;5073818;28;20375;-78
2022/04/06 03:19:29;;;;;;;12.52;11.32;;;;;;;7.86;100.00;98261.53;5092036;28;20027;-78
2022/04/06 03:21:54;;;;;;;12.15;10.95;;;;;;;7.90;100.00;98268.22;5091767;28;20028;-77
2022/04/06 03:24:20;;;;;;;13.52;11.50;;;;;;;7.85;100.00;98259.88;5092230;28;20421;-78
2022/04/06 03:26:45;;;;;;;11.63;10.45;;;;;;;7.95;100.00;98282.56;5092200;28;20080;-78
2022/04/06 03:29:11;;;;;;;11.65;10.50;;;;;;;7.93;100.00;98276.66;5073672;28;20483;-78
2022/04/06 03:31:37;;;;;;;12.30;10.40;;;;;;;7.88;100.00;98262.25;5073875;28;20031;-78
2022/04/06 03:34:03;;;;;;;11.77;10.40;;;;;;;7.89;100.00;98256.19;5091789;28;20020;-78
2022/04/06 03:36:29;;;;;;;11.32;10.02;;;;;;;7.92;100.00;98261.16;5073693;28;20039;-79
2022/04/06 03:38:55;;;;;;;10.60;9.50;;;;;;;7.97;100.00;98270.38;5073692;28;20046;-77
2022/04/06 03:41:20;;;;;;;10.80;9.70;;;;;;;7.99;100.00;98272.88;5091848;28;20027;-77
2022/04/06 03:43:45;;;;;;;10.60;9.57;;;;;;;7.93;100.00;98261.09;5091953;28;20023;-77
2022/04/06 03:46:11;;;;;;;11.20;10.10;;;;;;;7.94;100.00;98259.34;5094461;28;20032;-77
2022/04/06 03:48:36;;;;;;;11.02;9.93;;;;;;;8.02;100.00;98277.03;5077665;28;20391;-77
2022/04/06 03:51:02;;;;;;;11.10;10.00;;;;;;;8.00;100.00;98269.34;5077479;28;20024;-77
2022/04/06 03:53:27;;;;;;;11.88;10.68;;;;;;;7.94;100.00;98259.34;5095889;28;20024;-77
2022/04/06 03:55:53;;;;;;;11.35;9.30;;;;;;;7.99;100.00;98265.09;5095777;28;20463;-77
2022/04/06 03:58:18;;;;;;;12.52;10.43;;;;;;;7.93;100.00;98257.69;5095899;28;20085;-77
2022/04/06 04:00:44;;;;;;;12.80;11.52;;;;;;;7.90;100.00;98255.25;5096057;28;20348;-77
2022/04/06 04:03:09;;;;;;;11.05;9.98;;;;;;;7.99;100.00;98265.91;5095389;28;20180;-77
2022/04/06 04:05:35;;;;;;;11.55;10.35;;;;;;;7.94;100.00;98254.16;5052673;28;20069;-77
2022/04/06 04:08:00;;;;;;;13.50;12.10;;;;;;;8.04;100.00;98276.00;5035743;28;20037;-77
2022/04/06 04:10:26;;;;;;;12.35;11.15;;;;;;;8.02;100.00;98275.28;5052786;28;20043;-77
2022/04/06 04:12:51;;;;;;;13.70;12.30;;;;;;;8.05;100.00;98274.25;5052666;28;20518;-77
2022/04/06 04:15:17;;;;;;;12.95;11.55;;;;;;;7.99;100.00;98265.91;5052871;28;20045;-77
2022/04/06 04:17:42;;;;;;;12.80;11.50;;;;;;;8.00;100.00;98264.97;5052858;28;20175;-77
2022/04/06 04:20:08;;;;;;;13.88;11.88;;;;;;;8.05;100.00;98280.31;5052519;28;20044;-77
2022/04/06 04:22:34;;;;;;;13.15;11.85;;;;;;;8.06;100.00;98279.38;5052595;28;20033;-77
2022/04/06 04:24:59;;;;;;;15.15;13.38;;;;;;;8.04;100.00;98272.59;5052341;28;20070;-77
2022/04/06 04:27:25;;;;;;;13.82;12.40;;;;;;;8.13;100.00;98290.19;5052552;28;20573;-77
2022/04/06 04:29:50;;;;;;;13.20;11.85;;;;;;;8.14;100.00;98287.53;5052385;28;20044;-78
2022/04/06 04:32:16;;;;;;;13.52;12.13;;;;;;;8.05;100.00;98276.84;5052192;28;20033;-78
2022/04/06 04:34:42;;;;;;;12.77;11.52;;;;;;;7.98;100.00;98261.66;5052536;28;20021;-77
2022/04/06 04:37:08;;;;;;;14.15;12.45;;;;;;;8.09;100.00;98284.38;5083516;28;20119;-77
2022/04/06 04:39:33;;;;;;;13.65;11.52;;;;;;;8.12;100.00;98280.75;5095186;28;20031;-78
2022/04/06 04:41:59;;;;;;;12.18;10.98;;;;;;;8.10;100.00;98282.63;5076733;28;20028;-78
2022/04/06 04:44:24;;;;;;;11.02;10.00;;;;;;;7.99;100.00;98276.28;5076705;28;20024;-78
2022/04/06 04:46:49;;;;;;;11.10;10.10;;;;;;;8.05;100.00;98287.22;5076723;28;20024;-77
2022/04/06 04:49:15;;;;;;;11.07;10.02;;;;;;;7.99;100.00;98283.22;5094444;28;20430;-77
2022/04/06 04:51:40;;;;;;;11.25;10.20;;;;;;;8.07;100.00;98290.56;5094739;28;20074;-77
2022/04/06 04:54:06;;;;;;;10.68;9.68;;;;;;;7.96;100.00;98286.84;5094693;28;20020;-77
2022/04/06 04:56:32;;;;;;;12.07;10.88;;;;;;;7.95;100.00;98277.38;5094876;28;20024;-77
2022/04/06 04:58:58;;;;;;;12.25;11.07;;;;;;;7.95;100.00;98286.94;5094505;28;20103;-77
2022/04/06 05:01:24;;;;;;;13.00;11.80;;;;;;;8.00;100.00;98293.50;5094601;28;20119;-77
2022/04/06 05:03:50;;;;;;;12.15;10.93;;;;;;;7.93;100.00;98283.59;5076380;28;20118;-78
2022/04/06 05:06:15;;;;;;;13.35;11.95;;;;;;;7.97;100.00;98295.47;5094097;28;20042;-77
2022/04/06 05:08:41;;;;;;;13.32;11.88;;;;;;;8.03;100.00;98304.63;5094609;28;20028;-77
2022/04/06 05:11:06;;;;;;;12.65;11.45;;;;;;;7.90;100.00;98289.78;5076075;28;20032;-78
2022/04/06 05:13:32;;;;;;;13.65;12.35;;;;;;;8.01;100.00;98304.72;5076313;28;20073;-78
2022/04/06 05:15:58;;;;;;;13.77;12.35;;;;;;;7.93;100.00;98293.97;5094089;28;20028;-78
2022/04/06 05:18:23;;;;;;;14.70;12.77;;;;;;;7.92;100.00;98292.28;5094225;28;20032;-77
2022/04/06 05:20:49;;;;;;;13.80;12.50;;;;;;;8.00;100.00;98306.47;5076048;28;20054;-77
2022/04/06 05:23:15;;;;;;;15.65;14.07;;;;;;;7.93;100.00;98294.81;5094189;28;20084;-77
2022/04/06 05:25:41;;;;;;;14.02;12.68;;;;;;;7.94;100.00;98291.28;5094347;28;20463;-77
2022/04/06 05:28:08;;;;;;;14.85;13.45;;;;;;;8.01;100.00;98312.50;5075801;28;20028;-77
2022/04/06 05:30:34;;;;;;;14.38;13.07;;;;;;;8.03;100.00;98310.66;5094045;28;20024;-77
2022/04/06 05:32:59;;;;;;;14.93;13.50;;;;;;;8.03;100.00;98308.06;5093698;28;20677;-77
2022/04/06 05:35:26;;;;;;;14.50;13.00;;;;;;;8.04;100.00;98316.66;5093883;28;20028;-77
2022/04/06 05:37:54;;;;;;;15.15;13.65;;;;;;;8.06;100.00;98325.22;5075900;28;20054;-77
2022/04/06 05:40:19;;;;;;;16.00;14.45;;;;;;;8.06;100.00;98327.81;5093794;28;20036;-77
2022/04/06 05:42:46;;;;;;;13.88;12.57;;;;;;;8.06;100.00;98314.84;5093818;28;20046;-77
2022/04/06 05:45:11;;;;;;;15.73;14.23;;;;;;;8.03;100.00;98310.66;5093530;28;20382;-77
2022/04/06 05:47:37;;;;;;;16.45;13.90;;;;;;;8.08;100.00;98320.75;5093690;28;20032;-77
2022/04/06 05:50:05;;;;;;;15.75;14.25;;;;;;;8.15;100.00;98330.69;5074925;28;20048;-77
2022/04/06 05:52:31;;;;;;;15.07;13.68;;;;;;;8.03;100.00;98309.81;5093367;28;20491;-79
2022/04/06 05:54:57;;;;;;;16.77;15.02;;;;;;;8.07;100.00;98317.34;5093281;28;20035;-79
2022/04/06 05:57:22;;;;;;;16.15;14.40;;;;;;;8.08;100.00;98318.16;5093320;28;20024;-78
2022/04/06 05:59:48;;;;;;;15.90;14.38;;;;;;;8.16;100.00;98327.16;5093170;28;20036;-77
2022/04/06 06:02:14;;;;;;;17.17;15.38;;;;;;;8.13;100.00;98316.13;5092939;28;20210;-77
2022/04/06 06:04:40;;;;;;;15.25;13.75;;;;;;;8.29;100.00;98336.84;5074821;28;20423;-78
2022/04/06 06:07:06;;;;;;;16.45;14.30;;;;;;;8.32;100.00;98334.06;5092908;28;20099;-77
2022/04/06 06:09:32;;;;;;;15.05;13.57;;;;;;;8.31;100.00;98333.25;5092744;28;20107;-77
2022/04/06 06:11:58;;;;;;;15.82;14.23;;;;;;;8.28;100.00;98324.81;5093151;28;20116;-77
2022/04/06 06:14:24;;;;;;;15.70;13.95;;;;;;;8.41;100.00;98339.59;5092926;28;20082;-78
2022/04/06 06:16:49;;;;;;;15.52;13.93;;;;;;;8.38;100.00;98325.94;5092851;28;20475;-77
2022/04/06 06:19:16;;;;;;;15.55;13.95;;;;;;;8.48;100.00;98333.13;5092891;28;20590;-78
2022/04/06 06:21:41;;;;;;;17.48;15.60;;;;;;;8.48;100.00;98325.34;5093247;28;20027;-78
2022/04/06 06:24:07;;;;;;;18.83;16.10;;;;;;;8.59;100.00;98340.25;5074590;28;20548;-78
2022/04/06 06:26:37;;;;;;;22.70;16.90;;;;;;;8.55;100.00;98330.97;5074827;28;20495;-78
2022/04/06 06:29:03;;;;;;;20.10;16.08;;;;;;;8.64;100.00;98342.59;5092729;28;20073;-78
2022/04/06 06:31:29;;;;;;;30.65;20.77;;;;;;;8.69;100.00;98349.19;5092844;28;20042;-78
2022/04/06 06:33:56;;;;;;;30.75;22.67;;;;;;;8.68;100.00;98352.69;5093055;28;20119;-78
2022/04/06 06:36:23;;;;;;;24.15;18.85;;;;;;;8.69;100.00;98343.16;5092763;28;20020;-78
2022/04/06 06:38:48;;;;;;;25.27;16.85;;;;;;;8.68;100.00;98344.06;5092948;28;20032;-77
2022/04/06 06:41:14;;;;;;;21.35;14.30;;;;;;;8.74;100.00;98341.09;5092613;28;20031;-77
2022/04/06 06:43:39;;;;;;;19.63;14.43;;;;;;;8.79;100.00;98338.22;5074624;28;20028;-78
2022/04/06 06:46:05;;;;;;;23.33;14.45;;;;;;;8.95;100.00;98351.97;5068055;28;20109;-78
2022/04/06 06:48:30;;;;;;;21.83;14.98;;;;;;;9.11;100.00;98354.47;5079777;28;20056;-78
2022/04/06 06:50:55;;;;;;;18.65;13.77;;;;;;;9.18;100.00;98351.38;5072452;28;20025;-78
2022/04/06 06:53:21;;;;;;;18.58;14.25;;;;;;;9.30;100.00;98356.75;5072023;28;20603;-78
2022/04/06 06:55:46;;;;;;;21.60;14.88;;;;;;;9.39;100.00;98357.00;5072162;28;20105;-78
2022/04/06 06:58:11;;;;;;;22.63;14.68;;;;;;;9.38;100.00;98354.50;5071816;28;20047;-78
2022/04/06 07:00:37;;;;;;;27.08;16.92;;;;;;;9.42;100.00;98364.63;5071881;28;20028;-78
2022/04/06 07:03:02;;;;;;;20.17;13.25;;;;;;;9.46;100.00;98355.69;5071504;28;20029;-78
2022/04/06 07:05:28;;;;;;;22.17;13.73;;;;;;;9.43;100.00;98350.69;5072203;28;20029;-78
2022/04/06 07:07:54;;;;;;;22.25;14.20;;;;;;;9.58;100.00;98366.28;5072189;28;20028;-78
2022/04/06 07:10:22;;;;;;;22.27;14.23;;;;;;;9.51;100.00;98350.22;5071820;28;20020;-79
2022/04/06 07:12:47;;;;;;;22.77;14.70;;;;;;;9.50;100.00;98339.00;5053983;28;20036;-79
2022/04/06 07:15:13;;;;;;;17.77;12.27;;;;;;;9.63;100.00;98364.22;5053662;28;20419;-79
2022/04/06 07:17:38;;;;;;;17.27;13.23;;;;;;;9.53;100.00;98348.38;5053890;28;20035;-79
2022/04/06 07:20:05;;;;;;;19.38;13.40;;;;;;;9.55;100.00;98369.06;5052922;28;20079;-78
2022/04/06 07:22:31;;;;;;;18.88;12.43;;;;;;;9.44;100.00;98354.97;5053994;28;20472;-78
2022/04/06 07:24:56;;;;;;;16.63;12.05;;;;;;;9.41;100.00;98357.75;5071774;28;20070;-78
2022/04/06 07:27:21;;;;;;;13.63;11.15;;;;;;;9.53;100.00;98361.38;5071535;28;20031;-78
2022/04/06 07:29:47;;;;;;;13.55;10.52;;;;;;;9.53;100.00;98358.75;5071664;28;20025;-78
2022/04/06 07:32:12;;;;;;;19.85;12.88;;;;;;;9.60;100.00;98365.22;5071764;28;20384;-78
2022/04/06 07:34:38;;;;;;;19.60;13.27;;;;;;;9.61;100.00;98353.09;5060522;28;20376;-78
2022/04/06 07:37:04;;;;;;;17.90;13.32;;;;;;;9.74;100.00;98360.00;5076837;28;20036;-78
2022/04/06 07:39:29;;;;;;;20.20;14.50;;;;;;;9.91;100.00;98363.28;5073741;28;20033;-78
2022/04/06 07:41:57;;;;;;;15.65;11.88;;;;;;;10.02;100.00;98362.59;5071583;28;20105;-79
2022/04/06 07:44:23;;;;;;;19.05;13.05;;;;;;;10.07;100.00;98363.13;5071348;28;20025;-79
2022/04/06 07:46:50;;;;;;;13.70;12.07;;;;;;;10.19;100.00;98377.94;5072105;28;20040;-79
2022/04/06 07:49:15;;;;;;;12.68;10.80;;;;;;;10.28;100.00;98373.91;5071232;28;20048;-79
2022/04/06 07:51:40;;;;;;;14.93;11.68;;;;;;;10.32;100.00;98381.41;5053820;28;20357;-78
2022/04/06 07:54:06;;;;;;;12.43;10.88;;;;;;;10.31;100.00;98378.94;5071521;28;20060;-79
2022/04/06 07:56:31;;;;;;;15.55;11.75;;;;;;;10.28;100.00;98369.56;5071566;28;20020;-77
2022/04/06 07:58:57;;;;;;;13.32;11.85;;;;;;;10.24;100.00;98363.72;5052963;28;20106;-77
2022/04/06 08:01:22;;;;;;;14.70;12.35;;;;;;;10.26;100.00;98370.59;5071256;28;20426;-77
2022/04/06 08:03:48;;;;;;;16.13;12.93;;;;;;;10.34;100.00;98382.16;5082901;28;20414;-78
2022/04/06 08:06:13;;;;;;;17.10;13.18;;;;;;;10.26;100.00;98366.22;5091389;28;20024;-78
2022/04/06 08:08:38;;;;;;;17.77;15.98;;;;;;;10.32;100.00;98357.16;5078029;28;20045;-78
2022/04/06 08:11:05;;;;;;;15.57;13.75;;;;;;;10.60;100.00;98369.19;5070953;28;20023;-78
2022/04/06 08:13:32;;;;;;;13.00;11.75;;;;;;;10.85;100.00;98376.19;5071308;28;20118;-77
2022/04/06 08:15:58;;;;;;;14.95;13.43;;;;;;;10.96;100.00;98378.91;5071209;28;20060;-78
2022/04/06 08:18:24;;;;;;;13.50;12.10;;;;;;;11.16;100.00;98377.50;5071168;28;20454;-79
2022/04/06 08:20:49;;;;;;;13.23;11.90;;;;;;;11.54;100.00;98390.47;5071393;28;20064;-78
2022/04/06 08:23:17;;;;;;;14.75;13.25;;;;;;;11.62;100.00;98382.09;5071115;28;20123;-78
2022/04/06 08:25:43;;;;;;;14.75;13.27;;;;;;;11.54;100.00;98364.38;5071333;28;20082;-79
2022/04/06 08:28:09;;;;;;;13.00;11.70;;;;;;;11.67;100.00;98391.28;5052613;28;20047;-78
2022/04/06 08:30:39;;;;;;;11.07;9.98;;;;;;;11.61;100.00;98399.53;5053217;28;20460;-78
2022/04/06 08:33:05;;;;;;;11.77;10.63;;;;;;;11.43;100.00;98400.84;5076550;28;20032;-78
2022/04/06 08:35:30;;;;;;;13.20;10.98;;;;;;;11.23;100.00;98391.78;5095492;28;20031;-78
2022/04/06 08:37:56;;;;;;;10.23;9.07;;;;;;;11.10;100.00;98398.78;5095063;28;20406;-78
2022/04/06 08:40:21;;;;;;;12.02;10.68;;;;;;;11.08;100.00;98403.25;5094861;28;20089;-78
2022/04/06 08:42:47;;;;;;;10.98;8.77;;;;;;;11.09;100.00;98394.53;5094910;28;20036;-78
2022/04/06 08:45:13;;;;;;;10.10;7.88;;;;;;;11.02;100.00;98380.25;5094867;28;20028;-78
2022/04/06 08:47:41;;;;;;;9.40;8.10;;;;;;;11.11;100.00;98388.25;5094871;28;20038;-78
2022/04/06 08:50:07;;;;;;;9.18;7.72;;;;;;;11.10;100.00;98383.97;5094643;28;20048;-78
2022/04/06 08:52:34;;;;;;;10.57;8.13;;;;;;;11.05;100.00;98388.69;5094870;28;20024;-80
2022/04/06 08:55:01;;;;;;;11.82;10.63;;;;;;;11.03;100.00;98389.72;5094790;28;20036;-91
2022/04/06 08:57:27;;;;;;;20.35;15.85;;;;;;;10.91;100.00;98380.97;5076199;28;20733;-89
2022/04/06 08:59:53;;;;;;;20.75;15.68;;;;;;;10.87;100.00;98390.78;5076792;28;20118;-89
2022/04/06 09:02:20;;;;;;;39.40;27.83;;;;;;;10.73;100.00;98378.66;5076592;28;20043;-88
2022/04/06 09:04:53;;;;;;;36.47;23.08;;;;;;;10.80;100.00;98386.91;5076513;28;20664;-89
2022/04/06 09:07:22;;;;;;;46.30;28.00;;;;;;;10.78;100.00;98380.13;5076332;28;20027;-89
2022/04/06 09:09:50;;;;;;;38.45;23.15;;;;;;;10.74;100.00;98389.91;5094246;28;20043;-88
2022/04/06 09:12:21;;;;;;;70.72;42.10;;;;;;;10.76;100.00;98392.44;5075874;28;20020;-88
2022/04/06 09:14:47;;;;;;;49.10;29.15;;;;;;;10.65;100.00;98380.13;5076289;28;20024;-89
2022/04/06 09:17:19;;;;;;;73.15;39.53;;;;;;;10.59;100.00;98375.34;5075990;28;20042;-88
2022/04/06 09:19:49;;;;;;;67.88;41.05;;;;;;;10.59;100.00;98373.56;5076179;28;20110;-91
2022/04/06 09:22:15;;;;;;;86.30;59.55;;;;;;;10.74;100.00;98367.34;5051166;28;20037;-90
2022/04/06 09:24:41;;;;;;;82.88;59.35;;;;;;;10.99;100.00;98376.91;5034744;28;20052;-89
2022/04/06 09:27:07;;;;;;;42.10;30.15;;;;;;;11.30;100.00;98368.75;5034564;28;20127;-88
2022/04/06 09:29:34;;;;;;;26.85;20.42;;;;;;;11.87;100.00;98382.06;5034109;28;20112;-85
2022/04/06 09:32:10;;;;;;;52.92;39.05;;;;;;;12.42;100.00;98359.72;5051159;28;20064;-87
2022/04/06 09:34:37;;;;;;;28.90;23.50;;;;;;;12.79;100.00;98359.56;5034386;28;20036;-86
2022/04/06 09:37:23;;;;;;;32.80;25.98;;;;;;;13.13;100.00;98344.72;5050920;28;20392;-87
2022/04/06 09:39:48;;;;;;;15.73;14.13;;;;;;;13.28;100.00;98342.75;5050783;28;20025;-86
2022/04/06 09:42:23;;;;;;;31.83;23.23;;;;;;;13.45;100.00;98355.31;5049850;28;20524;-86
2022/04/06 09:47:40;;;;;;;35.42;26.55;;;;;;;13.94;100.00;98354.00;5051067;28;20106;-86
2022/04/06 09:50:14;;;;;;;30.50;23.30;;;;;;;14.12;100.00;98350.88;5033628;28;20052;-86
2022/04/06 09:52:42;;;;;;;44.00;29.77;;;;;;;14.36;100.00;98363.72;5061599;28;20051;-86
2022/04/06 09:55:10;;;;;;;25.08;20.42;;;;;;;14.40;100.00;98350.22;5075103;28;20032;-86
2022/04/06 09:57:45;;;;;;;25.15;19.35;;;;;;;14.50;100.00;98360.84;5075438;28;20077;-86
2022/04/06 10:00:16;;;;;;;33.42;24.40;;;;;;;14.42;100.00;98364.06;5074926;28;20104;-86
2022/04/06 10:02:41;;;;;;;;;;;;;;;14.25;100.00;98356.75;5075439;28;20035;-85
2022/04/06 10:05:11;;;;;;;16.55;14.05;;;;;;;13.96;100.00;98365.19;5075075;28;20347;-84
2022/04/06 10:07:39;;;;;;;35.75;27.38;;;;;;;13.60;100.00;98358.50;5093085;28;20024;-84
2022/04/06 10:10:06;;;;;;;24.73;19.52;;;;;;;13.33;100.00;98358.91;5074685;28;20421;-84
2022/04/06 10:12:32;;;;;;;34.20;28.98;;;;;;;13.16;100.00;98367.22;5074565;28;20067;-84
2022/04/06 10:15:00;;;;;;;31.65;26.45;;;;;;;12.91;100.00;98350.78;5074674;28;20024;-84
2022/04/06 10:17:27;;;;;;;34.40;29.95;;;;;;;12.85;100.00;98364.34;5074603;28;20088;-84
2022/04/06 10:20:02;;;;;;;26.58;23.23;;;;;;;12.81;100.00;98355.06;5074818;28;20024;-85
2022/04/06 10:22:39;;;;;;;29.20;24.83;;;;;;;12.68;100.00;98349.94;5074548;28;20028;-87
2022/04/06 10:25:17;;;;;;;21.85;19.50;;;;;;;12.74;100.00;98353.88;5074893;28;20047;-85
2022/04/06 10:27:48;;;;;;;20.23;17.08;;;;;;;12.75;100.00;98352.91;5093109;28;20052;-84
2022/04/06 10:30:23;;;;;;;23.30;17.90;;;;;;;12.88;100.00;98360.66;5092538;28;20024;-86
2022/04/06 10:32:50;;;;;;;26.25;20.98;;;;;;;12.90;100.00;98354.38;5074852;28;20475;-86
2022/04/06 10:35:31;;;;;;;21.55;17.80;;;;;;;12.91;100.00;98357.81;5073962;28;20024;-85
2022/04/06 10:37:56;;;;;;;14.20;8.85;;;;;;;12.79;100.00;98353.53;5074515;28;20085;-86
2022/04/06 10:40:23;;;;;;;14.25;9.25;;;;;;;12.79;100.00;98356.13;5074242;28;20032;-86
2022/04/06 10:42:49;;;;;;;10.43;7.78;;;;;;;12.78;98.21;98339.63;5074259;28;20031;-86
2022/04/06 10:45:29;;;;;;;11.70;7.20;;;;;;;12.83;97.69;98361.00;5092583;28;20024;-86
2022/04/06 10:48:20;;;;;;;9.73;6.50;;;;;;;12.98;97.67;98352.00;5073818;28;20066;-86
2022/04/06 10:50:48;;;;;;;8.38;6.28;;;;;;;13.15;97.67;98345.47;5074342;28;20028;-86
2022/04/06 10:53:22;;;;;;;24.90;20.02;;;;;;;13.42;97.08;98350.34;5073959;28;20032;-86
2022/04/06 10:56:12;;;;;;;18.45;14.27;;;;;;;13.70;95.99;98346.38;5073973;28;20495;-85
2022/04/06 10:58:55;;;;;;;29.17;25.05;;;;;;;13.90;94.96;98330.81;5092500;28;20035;-84
2022/04/06 11:01:31;;;;;;;8.88;7.82;;;;;;;13.99;93.96;98327.47;5073721;28;20028;-85
2022/04/06 11:04:04;;;;;;;8.35;7.55;;;;;;;14.04;92.92;98319.25;5092194;28;20032;-85
2022/04/06 11:06:45;;;;;;;21.58;19.48;;;;;;;14.05;92.29;98328.75;5073524;28;20024;-85
2022/04/06 11:12:16;;;;;;;8.80;7.90;;;;;;;14.32;92.68;98320.41;5092268;28;20038;-85
2022/04/06 11:14:44;;;;;;;8.63;6.75;;;;;;;14.35;91.56;98312.28;5092008;28;20391;-85
2022/04/06 11:17:38;;;;;;;7.25;6.20;;;;;;;14.45;90.79;98318.41;5073811;28;20443;-86
2022/04/06 11:20:15;;;;;;;9.07;7.43;;;;;;;14.46;90.20;98313.06;5074095;28;20032;-85
2022/04/06 11:22:43;;;;;;;8.07;7.20;;;;;;;14.38;89.94;98306.81;5073730;28;20039;-86
2022/04/06 11:25:20;;;;;;;8.82;6.63;;;;;;;14.21;90.25;98303.81;5073605;28;20036;-85
2022/04/06 11:27:46;;;;;;;8.40;7.43;;;;;;;13.97;90.90;98303.19;5074323;28;20020;-88